Time;durP1;ratioP1;P1;durP2;ratioP2;P2;SDS_P1;SDS_P2;PMS_P1;PMS_P2;Temp;Humidity;BMP_temperature;BMP_pressure;BME280_temperature;BME280_humidity;BME280_pressure;Samples;Min_cycle;Max_cycle;Signal;HPM_P1;HPM_P2
2023/08/26 00:00:28;;;;;;;;;3.50;3.00;;;;;20.78;46.20;100795.56;5084969;28;45389;-64
2023/08/26 00:02:54;;;;;;;;;3.75;3.00;;;;;20.79;46.82;100793.72;5085965;28;46013;-64
2023/08/26 00:05:20;;;;;;;;;3.75;2.25;;;;;20.72;46.21;100784.38;5086267;27;45417;-64
2023/08/26 00:07:45;;;;;;;;;3.00;3.00;;;;;20.76;46.89;100792.09;5085017;28;45427;-64
2023/08/26 00:10:11;;;;;;;;;2.75;2.25;;;;;20.76;46.64;100789.44;5084365;28;45623;-64
2023/08/26 00:12:36;;;;;;;;;4.25;2.50;;;;;20.72;46.69;100790.56;5086080;28;45790;-64
2023/08/26 00:15:01;;;;;;;;;4.25;2.50;;;;;20.74;46.66;100790.47;5084760;27;45434;-64
2023/08/26 00:17:26;;;;;;;;;4.00;4.00;;;;;20.71;46.56;100799.50;5086179;28;45299;-64
2023/08/26 00:19:52;;;;;;;;;2.25;2.25;;;;;20.68;46.85;100794.31;5086151;28;45308;-64
2023/08/26 00:22:20;;;;;;;;;4.00;4.00;;;;;20.68;46.60;100790.78;5084432;28;48264;-64
2023/08/26 00:24:47;;;;;;;;;7.25;6.50;;;;;20.65;46.81;100781.13;5085793;28;45252;-64
2023/08/26 00:27:13;;;;;;;;;3.25;3.25;;;;;20.62;46.82;100781.31;5085658;28;45413;-64
2023/08/26 00:29:38;;;;;;;;;5.25;5.00;;;;;20.64;46.98;100782.09;5085787;28;45471;-64
2023/08/26 00:32:04;;;;;;;;;2.00;2.00;;;;;20.62;46.81;100773.31;5085648;28;45366;-64
2023/08/26 00:34:29;;;;;;;;;3.50;3.00;;;;;20.61;46.64;100776.91;5085806;28;45315;-64
2023/08/26 00:36:54;;;;;;;;;3.00;3.00;;;;;20.62;46.40;100776.81;5084439;27;45393;-63
2023/08/26 00:39:20;;;;;;;;;3.00;2.00;;;;;20.62;46.57;100781.31;5085843;28;45392;-63
2023/08/26 00:41:46;;;;;;;;;2.00;2.00;;;;;20.59;46.85;100768.13;5085384;28;45351;-63
2023/08/26 00:44:11;;;;;;;;;1.75;1.75;;;;;20.59;47.04;100771.66;5082281;28;45264;-64
2023/08/26 00:46:37;;;;;;;;;1.75;1.75;;;;;20.58;46.52;100774.44;5082366;27;45232;-63
2023/08/26 00:49:02;;;;;;;;;2.00;2.00;;;;;20.58;47.02;100771.75;5082460;28;45484;-63
2023/08/26 00:51:28;;;;;;;;;4.00;2.00;;;;;20.55;46.93;100770.13;5082409;28;46403;-63
2023/08/26 00:53:54;;;;;;;;;2.00;2.00;;;;;20.57;46.55;100772.69;5082333;28;45221;-63
2023/08/26 00:56:21;;;;;;;;;2.00;2.00;;;;;20.56;47.03;100766.47;5081913;27;45351;-63
2023/08/26 00:58:46;;;;;;;;;3.00;3.00;;;;;20.57;46.93;100778.03;5082279;28;45181;-63
2023/08/26 01:01:12;;;;;;;;;5.00;4.25;;;;;20.54;46.66;100768.41;5082095;28;46335;-64
2023/08/26 01:03:38;;;;;;;;;4.25;3.50;;;;;20.54;47.15;100764.84;5080807;28;45360;-64
2023/08/26 01:06:04;;;;;;;;;5.25;3.00;;;;;20.57;46.49;100768.22;5082149;27;45491;-64
2023/08/26 01:08:30;;;;;;;;;3.00;2.25;;;;;20.55;47.08;100775.47;5082093;28;45329;-63
2023/08/26 01:11:01;;;;;;;;;2.00;2.00;;;;;20.57;47.16;100775.38;5081438;28;45486;-63
2023/08/26 01:13:46;;;;;;;;;3.00;3.00;;;;;20.56;46.63;100774.50;5081993;28;45254;-64
2023/08/26 01:16:13;;;;;;;;;4.00;2.00;;;;;20.56;46.60;100768.31;5082226;27;45456;-64
2023/08/26 01:18:40;;;;;;;;;3.00;3.00;;;;;20.56;46.89;100785.16;5080368;28;45327;-64
2023/08/26 01:21:08;;;;;;;;;2.00;2.00;;;;;20.55;47.04;100783.47;5081670;28;45360;-64
2023/08/26 01:23:43;;;;;;;;;2.00;2.00;;;;;20.55;46.64;100790.59;5081521;28;45488;-64
2023/08/26 01:26:08;;;;;;;;;5.50;4.00;;;;;20.54;47.15;100794.22;5080194;28;45393;-64
2023/08/26 01:28:34;;;;;;;;;2.00;2.00;;;;;20.53;46.77;100785.34;5081551;28;45314;-64
2023/08/26 01:31:04;;;;;;;;;1.75;1.75;;;;;20.51;46.66;100773.88;5081909;28;46329;-64
2023/08/26 01:33:35;;;;;;;;;2.00;2.00;;;;;20.51;47.06;100781.03;5081686;28;45256;-64
2023/08/26 01:36:04;;;;;;;;;3.75;2.25;;;;;20.53;47.06;100788.03;5081713;27;45238;-64
2023/08/26 01:38:30;;;;;;;;;3.00;3.00;;;;;20.45;47.11;100767.09;5081353;28;45552;-64
2023/08/26 01:40:56;;;;;;;;;5.25;2.00;;;;;20.52;46.90;100782.78;5080934;28;46255;-64
2023/08/26 01:43:23;;;;;;;;;2.00;2.00;;;;;20.51;46.52;100773.03;5081311;28;45256;-64
2023/08/26 01:45:51;;;;;;;;;1.00;1.00;;;;;20.50;46.54;100773.97;5081569;27;45300;-64
2023/08/26 01:48:16;;;;;;;;;0.75;0.00;;;;;20.44;46.57;100767.19;5081317;28;45216;-64
2023/08/26 01:50:41;;;;;;;;;2.00;2.00;;;;;20.45;46.58;100769.75;5081246;28;46218;-64
2023/08/26 01:53:08;;;;;;;;;1.50;1.50;;;;;20.42;47.03;100766.41;5081381;28;45298;-64
2023/08/26 01:55:34;;;;;;;;;2.00;2.00;;;;;20.41;46.94;100760.19;5078448;27;45428;-64
2023/08/26 01:57:59;;;;;;;;;1.25;1.25;;;;;20.39;47.06;100756.75;5081334;28;45310;-64
2023/08/26 02:00:24;;;;;;;;;2.50;2.00;;;;;20.36;47.15;100754.25;5081190;28;45590;-64
2023/08/26 02:02:50;;;;;;;;;3.75;1.25;;;;;20.36;46.84;100761.41;5080971;28;45247;-64
2023/08/26 02:05:15;;;;;;;;;3.25;2.50;;;;;20.34;46.69;100763.28;5079889;28;45468;-64
2023/08/26 02:07:42;;;;;;;;;1.00;1.00;;;;;20.30;47.28;100762.59;5081089;28;45441;-64
2023/08/26 02:10:08;;;;;;;;;3.00;2.00;;;;;20.27;46.56;100755.59;5080588;28;45500;-64
2023/08/26 02:12:33;;;;;;;;;1.00;1.00;;;;;20.24;47.22;100753.13;5080940;28;45159;-64
2023/08/26 02:15:01;;;;;;;;;3.75;2.25;;;;;20.24;46.84;100753.13;5081111;28;45573;-63
2023/08/26 02:17:26;;;;;;;;;4.00;3.75;;;;;20.23;47.03;100755.88;5079548;28;45262;-64
2023/08/26 02:19:51;;;;;;;;;2.00;2.00;;;;;20.12;47.03;100752.00;5079326;28;51859;-64
2023/08/26 02:22:17;;;;;;;;;1.00;1.00;;;;;20.14;46.82;100762.56;5080809;28;45345;-64
2023/08/26 02:24:42;;;;;;;;;1.25;1.25;;;;;20.12;47.20;100753.78;5080934;27;45578;-64
2023/08/26 02:27:07;;;;;;;;;2.25;2.25;;;;;20.08;47.49;100738.91;5078944;27;45395;-64
2023/08/26 02:29:33;;;;;;;;;3.75;3.00;;;;;20.07;46.85;100746.03;5080895;28;46257;-64
2023/08/26 02:31:58;;;;;;;;;2.00;2.00;;;;;20.04;47.22;100732.03;5080650;28;45424;-64
2023/08/26 02:34:25;;;;;;;;;3.00;2.00;;;;;20.00;46.96;100731.31;5080988;28;45256;-64
2023/08/26 02:36:51;;;;;;;;;2.75;2.75;;;;;20.01;47.13;100738.34;5080474;27;46243;-64
2023/08/26 02:39:16;;;;;;;;;3.50;3.00;;;;;19.96;46.81;100737.72;5080704;28;46299;-64
2023/08/26 02:41:41;;;;;;;;;1.50;1.50;;;;;19.91;47.24;100732.66;5080076;28;45375;-63
2023/08/26 02:44:07;;;;;;;;;1.00;1.00;;;;;19.88;46.87;100727.50;5096236;27;45358;-64
2023/08/26 02:46:32;;;;;;;;;2.25;2.25;;;;;19.89;46.94;100736.38;5080645;28;45564;-64
2023/08/26 02:48:57;;;;;;;;;2.25;2.00;;;;;19.83;47.33;100728.69;5080562;28;47828;-64
2023/08/26 02:51:23;;;;;;;;;1.75;1.75;;;;;19.77;46.97;100727.16;5079979;28;52772;-63
2023/08/26 02:53:48;;;;;;;;;2.00;2.00;;;;;19.80;47.19;100733.19;5079226;28;45641;-64
2023/08/26 02:56:13;;;;;;;;;3.00;2.00;;;;;19.77;47.48;100733.38;5078548;27;50139;-63
2023/08/26 02:58:38;;;;;;;;;2.00;2.00;;;;;19.77;47.59;100728.03;5080440;28;45610;-64
2023/08/26 03:01:06;;;;;;;;;3.50;3.00;;;;;19.74;47.00;100733.53;5080211;28;45238;-64
2023/08/26 03:03:31;;;;;;;;;2.25;2.25;;;;;19.73;47.54;100725.63;5080381;28;45562;-64
2023/08/26 03:05:57;;;;;;;;;3.50;2.00;;;;;19.69;47.17;100716.91;5079609;28;45241;-64
2023/08/26 03:08:23;;;;;;;;;1.75;1.75;;;;;19.70;47.20;100717.75;5078890;28;47263;-64
2023/08/26 03:10:59;;;;;;;;;4.00;3.00;;;;;19.66;47.40;100714.41;5079663;27;45345;-64
2023/08/26 03:13:25;;;;;;;;;3.00;2.25;;;;;19.61;47.70;100714.66;5080450;28;45320;-64
2023/08/26 03:15:50;;;;;;;;;2.25;2.25;;;;;19.60;47.45;100704.09;5079906;27;45296;-64
2023/08/26 03:18:15;;;;;;;;;2.00;2.00;;;;;19.60;47.43;100718.25;5078174;28;60361;-64
2023/08/26 03:20:41;;;;;;;;;3.00;3.00;;;;;19.57;47.29;100718.44;5079967;28;45330;-64
2023/08/26 03:23:06;;;;;;;;;3.00;2.00;;;;;19.52;47.61;100725.81;5080023;28;45301;-64
2023/08/26 03:25:31;;;;;;;;;2.25;2.25;;;;;19.51;47.48;100716.09;5079447;28;45301;-64
2023/08/26 03:27:56;;;;;;;;;2.00;2.00;;;;;19.47;47.49;100717.16;5079864;28;46078;-64
2023/08/26 03:30:22;;;;;;;;;2.25;2.25;;;;;19.43;47.62;100720.94;5079885;28;45323;-64
2023/08/26 03:32:47;;;;;;;;;3.00;2.00;;;;;19.40;47.57;100718.44;5080206;28;45314;-64
2023/08/26 03:35:12;;;;;;;;;4.00;2.00;;;;;19.35;47.71;100716.00;5079601;28;45219;-64
2023/08/26 03:37:38;;;;;;;;;2.50;2.50;;;;;19.28;48.38;100712.81;5079589;27;45498;-64
2023/08/26 03:40:07;;;;;;;;;2.00;2.00;;;;;19.23;48.38;100716.63;5079549;28;45157;-63
2023/08/26 03:42:32;;;;;;;;;4.00;3.00;;;;;19.17;48.27;100707.16;5079822;28;45415;-64
2023/08/26 03:44:58;;;;;;;;;1.25;1.25;;;;;19.15;48.23;100717.03;5079698;28;45333;-64
2023/08/26 03:47:23;;;;;;;;;4.25;4.25;;;;;19.11;48.25;100712.81;5077985;28;58029;-63
2023/08/26 03:49:48;;;;;;;;;2.25;2.00;;;;;19.08;48.38;100712.94;5079371;28;50616;-64
2023/08/26 03:52:14;;;;;;;;;2.50;2.50;;;;;19.02;48.13;100719.44;5079499;28;47759;-63
2023/08/26 03:54:39;;;;;;;;;3.00;3.00;;;;;18.97;48.26;100702.84;5079389;28;53506;-63
2023/08/26 03:57:04;;;;;;;;;4.00;4.00;;;;;18.93;48.69;100703.91;5077760;28;45997;-63
2023/08/26 03:59:29;;;;;;;;;2.25;2.25;;;;;18.87;48.69;100715.72;5079545;28;45460;-64
2023/08/26 04:01:55;;;;;;;;;2.00;2.00;;;;;18.82;48.90;100707.94;5079660;28;45322;-63
2023/08/26 04:04:20;;;;;;;;;2.00;2.00;;;;;18.77;48.94;100714.44;5078128;28;45485;-64
2023/08/26 04:06:45;;;;;;;;;3.00;1.75;;;;;18.74;48.73;100709.25;5079379;28;45433;-64
2023/08/26 04:09:11;;;;;;;;;2.00;2.00;;;;;18.67;48.83;100706.88;5079153;28;45273;-63
2023/08/26 04:11:36;;;;;;;;;4.00;3.00;;;;;18.67;49.10;100717.53;5077524;28;45299;-63
2023/08/26 04:14:01;;;;;;;;;2.00;2.00;;;;;18.62;48.65;100710.72;5079215;28;47683;-63
2023/08/26 04:16:28;;;;;;;;;3.00;3.00;;;;;18.59;49.44;100710.84;5079192;28;45343;-64
2023/08/26 04:18:54;;;;;;;;;3.00;2.00;;;;;18.56;49.38;100722.50;5080801;28;44704;-63
2023/08/26 04:21:19;;;;;;;;;2.00;1.00;;;;;18.47;49.01;100702.53;5081610;28;45179;-64
2023/08/26 04:23:45;;;;;;;;;6.50;6.00;;;;;18.51;48.90;100709.44;5082438;28;45490;-64
2023/08/26 04:26:10;;;;;;;;;2.50;2.50;;;;;18.46;49.07;100716.75;5081027;27;47477;-64
2023/08/26 04:28:36;;;;;;;;;3.00;2.50;;;;;18.44;49.08;100702.69;5082663;28;45246;-64
2023/08/26 04:31:01;;;;;;;;;3.25;2.50;;;;;18.42;49.04;100712.53;5082915;28;45516;-63
2023/08/26 04:33:27;;;;;;;;;2.50;2.50;;;;;18.38;49.53;100721.59;5082675;28;45181;-63
2023/08/26 04:35:52;;;;;;;;;3.00;2.75;;;;;18.34;49.52;100714.72;5082659;27;45320;-63
2023/08/26 04:38:17;;;;;;;;;2.25;2.25;;;;;18.32;49.55;100705.94;5082505;28;45236;-63
2023/08/26 04:40:43;;;;;;;;;3.75;2.75;;;;;18.30;49.68;100710.44;5082469;28;45317;-63
2023/08/26 04:43:10;;;;;;;;;4.00;3.00;;;;;18.28;49.38;100704.34;5081008;28;45573;-63
2023/08/26 04:45:36;;;;;;;;;6.50;3.25;;;;;18.24;49.42;100711.63;5082399;27;46639;-63
2023/08/26 04:48:02;;;;;;;;;3.00;3.00;;;;;18.23;49.45;100711.69;5082257;28;45347;-63
2023/08/26 04:50:28;;;;;;;;;2.00;2.00;;;;;18.21;49.60;100710.88;5082494;28;45271;-63
2023/08/26 04:52:53;;;;;;;;;2.75;2.75;;;;;18.19;49.46;100708.31;5080864;28;45574;-63
2023/08/26 04:55:19;;;;;;;;;4.25;3.00;;;;;18.15;49.40;100710.25;5080420;27;45481;-63
2023/08/26 04:57:44;;;;;;;;;3.00;3.00;;;;;18.16;49.58;100714.63;5082270;28;45209;-63
2023/08/26 05:00:10;;;;;;;;;3.75;3.00;;;;;18.15;49.43;100717.34;5082466;28;45461;-63
2023/08/26 05:02:39;;;;;;;;;3.00;3.00;;;;;18.11;49.61;100714.00;5080523;28;45751;-63
2023/08/26 05:05:05;;;;;;;;;4.00;4.00;;;;;18.10;49.49;100714.91;5080623;27;46693;-63
2023/08/26 05:07:31;;;;;;;;;2.00;2.00;;;;;18.09;49.63;100725.63;5080484;28;45662;-63
2023/08/26 05:09:57;;;;;;;;;2.50;2.50;;;;;18.09;49.85;100723.81;5081857;28;45344;-63
2023/08/26 05:12:22;;;;;;;;;3.00;3.00;;;;;18.05;49.80;100724.91;5081843;28;45224;-63
2023/08/26 05:14:48;;;;;;;;;3.50;3.00;;;;;18.00;50.21;100719.78;5080578;28;45976;-63
2023/08/26 05:17:13;;;;;;;;;3.00;2.00;;;;;17.91;49.68;100725.50;5081919;28;45273;-63
2023/08/26 05:19:38;;;;;;;;;5.00;2.00;;;;;17.92;50.17;100729.00;5082167;28;45547;-63
2023/08/26 05:22:04;;;;;;;;;2.50;2.00;;;;;17.93;49.93;100742.22;5081654;28;45621;-64
2023/08/26 05:24:30;;;;;;;;;2.75;2.75;;;;;17.95;49.97;100747.50;5081679;28;45545;-63
2023/08/26 05:26:56;;;;;;;;;1.75;1.75;;;;;17.92;50.07;100742.31;5081262;27;45176;-63
2023/08/26 05:29:21;;;;;;;;;2.00;2.00;;;;;17.92;50.09;100744.97;5080205;28;45350;-63
2023/08/26 05:31:46;;;;;;;;;2.00;2.00;;;;;17.91;50.24;100746.75;5081595;28;45166;-64
2023/08/26 05:34:11;;;;;;;;;2.50;2.50;;;;;17.91;50.28;100743.22;5081829;28;45245;-63
2023/08/26 05:36:37;;;;;;;;;1.25;1.25;;;;;17.92;50.10;100743.16;5081166;27;54431;-63
2023/08/26 05:39:02;;;;;;;;;3.00;3.00;;;;;17.93;50.44;100744.88;5082063;28;45251;-63
2023/08/26 05:41:27;;;;;;;;;3.75;3.50;;;;;17.91;50.16;100743.22;5081210;28;45286;-63
2023/08/26 05:43:53;;;;;;;;;2.75;2.75;;;;;17.93;50.19;100738.72;5081488;28;45314;-63
2023/08/26 05:46:18;;;;;;;;;3.00;3.00;;;;;17.91;50.25;100735.25;5081481;27;45358;-63
2023/08/26 05:48:43;;;;;;;;;3.00;2.00;;;;;17.93;50.29;100741.38;5081578;28;45421;-63
2023/08/26 05:51:09;;;;;;;;;3.00;3.00;;;;;17.92;50.24;100745.81;5079947;28;45420;-64
2023/08/26 05:53:34;;;;;;;;;4.25;3.00;;;;;17.91;50.30;100740.56;5079842;28;53601;-64
2023/08/26 05:55:59;;;;;;;;;1.25;1.25;;;;;17.93;50.25;100730.75;5080991;28;45382;-63
2023/08/26 05:58:24;;;;;;;;;2.50;2.50;;;;;17.92;50.16;100745.81;5081507;28;45468;-64
2023/08/26 06:00:50;;;;;;;;;3.50;1.50;;;;;17.90;50.36;100744.16;5079645;28;47598;-64
2023/08/26 06:03:16;;;;;;;;;1.75;1.75;;;;;17.92;50.41;100755.59;5081135;28;45995;-63
2023/08/26 06:05:41;;;;;;;;;1.00;1.00;;;;;17.90;50.37;100760.09;5081116;27;45263;-65
2023/08/26 06:08:06;;;;;;;;;1.00;1.00;;;;;17.87;50.13;100751.34;5081289;28;51188;-65
2023/08/26 06:10:32;;;;;;;;;1.00;1.00;;;;;17.89;50.35;100756.59;5080633;28;45427;-64
2023/08/26 06:12:57;;;;;;;;;1.75;1.75;;;;;17.90;50.37;100747.69;5081249;28;45252;-63
2023/08/26 06:15:23;;;;;;;;;1.00;1.00;;;;;17.88;50.89;100757.53;5080972;27;45241;-64
2023/08/26 06:17:48;;;;;;;;;2.75;2.00;;;;;17.89;50.77;100753.09;5081294;28;45764;-63
2023/08/26 06:20:14;;;;;;;;;1.75;1.75;;;;;17.89;50.92;100750.44;5080888;28;45477;-64
2023/08/26 06:22:39;;;;;;;;;1.50;1.50;;;;;17.87;50.47;100742.50;5081121;28;46556;-64
2023/08/26 06:25:05;;;;;;;;;2.00;2.00;;;;;17.88;50.96;100749.53;5080195;27;45213;-64
2023/08/26 06:27:30;;;;;;;;;1.00;1.00;;;;;17.87;50.84;100747.81;5081294;28;45490;-64
2023/08/26 06:29:58;;;;;;;;;1.75;1.25;;;;;17.92;50.66;100742.31;5080831;28;45608;-64
2023/08/26 06:32:24;;;;;;;;;1.25;1.25;;;;;17.89;50.92;100743.31;5080613;28;46205;-64
2023/08/26 06:34:50;;;;;;;;;1.50;1.50;;;;;17.90;50.91;100742.38;5079138;27;45334;-64
2023/08/26 06:37:15;;;;;;;;;1.00;1.00;;;;;17.91;50.87;100740.56;5079636;28;45454;-64
2023/08/26 06:39:40;;;;;;;;;2.50;2.50;;;;;17.94;51.00;100748.44;5080609;28;45228;-65
2023/08/26 06:42:06;;;;;;;;;1.25;1.25;;;;;17.83;51.00;100733.78;5079586;28;45614;-65
2023/08/26 06:44:32;;;;;;;;;2.00;2.00;;;;;17.92;50.85;100745.81;5080499;28;45330;-65
2023/08/26 06:46:58;;;;;;;;;1.25;1.25;;;;;17.94;50.89;100743.13;5080897;28;45315;-65
2023/08/26 06:49:24;;;;;;;;;1.25;0.75;;;;;17.94;50.64;100748.44;5080613;28;45240;-66
2023/08/26 06:51:49;;;;;;;;;2.50;2.50;;;;;17.96;50.82;100751.88;5080374;28;46391;-66
2023/08/26 06:54:14;;;;;;;;;1.00;1.00;;;;;17.97;50.94;100745.66;5079104;28;45331;-67
2023/08/26 06:56:40;;;;;;;;;2.00;2.00;;;;;17.94;51.30;100738.66;5080220;28;45203;-67
2023/08/26 06:59:05;;;;;;;;;5.50;4.75;;;;;18.00;51.01;100745.53;5080023;28;48534;-66
2023/08/26 07:01:32;;;;;;;;;0.50;0.50;;;;;18.00;51.09;100737.53;5080353;28;46494;-62
2023/08/26 07:04:04;;;;;;;;;4.00;1.25;;;;;18.02;51.18;100739.19;5080180;28;45272;-61
2023/08/26 07:06:30;;;;;;;;;1.00;1.00;;;;;18.06;50.99;100744.38;5080398;27;45364;-61
2023/08/26 07:08:56;;;;;;;;;2.25;1.50;;;;;18.06;51.03;100731.91;5079856;28;45230;-62
2023/08/26 07:11:21;;;;;;;;;2.00;2.00;;;;;18.07;51.25;100738.13;5080113;28;45259;-61
2023/08/26 07:13:46;;;;;;;;;4.00;1.25;;;;;18.08;51.30;100738.03;5080073;28;45484;-62
2023/08/26 07:16:12;;;;;;;;;1.00;1.00;;;;;18.09;51.34;100731.78;5080497;27;45303;-61
2023/08/26 07:18:37;;;;;;;;;2.00;1.00;;;;;18.10;51.14;100735.31;5079962;28;45628;-64
2023/08/26 07:21:02;;;;;;;;;1.25;1.00;;;;;18.15;51.02;100743.94;5080022;28;46178;-64
2023/08/26 07:23:28;;;;;;;;;1.50;1.00;;;;;18.18;50.87;100749.97;5079585;27;45343;-64
2023/08/26 07:25:53;;;;;;;;;3.00;2.00;;;;;18.22;51.02;100744.53;5078635;28;45361;-65
2023/08/26 07:28:18;;;;;;;;;1.00;1.00;;;;;18.20;50.85;100736.63;5079860;28;45318;-67
2023/08/26 07:30:44;;;;;;;;;1.25;1.00;;;;;18.23;51.08;100741.78;5080018;28;46196;-64
2023/08/26 07:33:09;;;;;;;;;0.50;0.50;;;;;18.27;51.22;100745.19;5078492;28;45213;-65
2023/08/26 07:35:34;;;;;;;;;2.00;1.00;;;;;18.30;51.35;100742.38;5080232;27;45242;-65
2023/08/26 07:38:00;;;;;;;;;2.00;2.00;;;;;18.31;51.50;100741.44;5079777;28;45525;-66
2023/08/26 07:40:26;;;;;;;;;2.50;2.00;;;;;18.33;51.29;100743.09;5079662;28;46348;-65
2023/08/26 07:42:51;;;;;;;;;1.75;1.75;;;;;18.34;51.12;100741.31;5079620;28;45343;-69
2023/08/26 07:45:16;;;;;;;;;3.25;1.00;;;;;18.38;51.21;100737.56;5078548;27;45330;-63
2023/08/26 07:47:42;;;;;;;;;2.00;0.50;;;;;18.38;51.34;100737.56;5079635;28;45310;-63
2023/08/26 07:50:08;;;;;;;;;0.50;0.50;;;;;18.38;51.29;100742.00;5078371;28;45438;-63
2023/08/26 07:52:33;;;;;;;;;1.00;1.00;;;;;18.39;51.40;100741.97;5080945;28;45231;-62
2023/08/26 07:54:58;;;;;;;;;0.00;0.00;;;;;18.41;51.31;100747.19;5083102;27;45242;-62
2023/08/26 07:57:24;;;;;;;;;0.75;0.75;;;;;18.38;51.28;100748.22;5083367;28;45468;-62
2023/08/26 07:59:49;;;;;;;;;1.50;1.50;;;;;18.41;51.33;100758.69;5083103;28;45994;-63
2023/08/26 08:02:14;;;;;;;;;4.00;3.00;;;;;18.42;51.56;100757.75;5083089;28;45181;-63
2023/08/26 08:04:40;;;;;;;;;1.75;1.75;;;;;18.45;51.36;100765.63;5082917;28;47292;-62
2023/08/26 08:07:05;;;;;;;;;1.00;1.00;;;;;18.47;51.53;100758.41;5082946;27;45457;-63
2023/08/26 08:09:30;;;;;;;;;3.00;1.00;;;;;18.50;51.63;100766.25;5082819;28;45255;-63
2023/08/26 08:11:56;;;;;;;;;1.50;1.00;;;;;18.57;51.49;100758.00;5080733;28;45354;-62
2023/08/26 08:14:21;;;;;;;;;3.00;2.00;;;;;18.61;51.94;100765.72;5082847;28;47413;-63
2023/08/26 08:16:46;;;;;;;;;0.50;0.50;;;;;18.64;52.36;100768.25;5083122;27;45596;-63
2023/08/26 08:19:11;;;;;;;;;1.00;1.00;;;;;18.70;51.69;100767.09;5082769;28;45199;-64
2023/08/26 08:21:37;;;;;;;;;2.50;2.50;;;;;18.78;51.96;100780.03;5081581;28;45330;-64
2023/08/26 08:24:02;;;;;;;;;1.50;1.00;;;;;18.82;51.94;100777.16;5082697;28;45257;-64
2023/08/26 08:26:32;;;;;;;;;1.00;1.00;;;;;18.80;52.06;100784.38;5080787;27;45724;-64
2023/08/26 08:28:57;;;;;;;;;1.00;1.00;;;;;18.89;51.94;100790.16;5082525;28;45351;-64
2023/08/26 08:31:22;;;;;;;;;0.25;0.00;;;;;18.94;51.81;100788.19;5082733;28;45341;-64
2023/08/26 08:33:48;;;;;;;;;1.75;1.75;;;;;18.95;51.98;100782.78;5080994;28;51364;-64
2023/08/26 08:36:13;;;;;;;;;2.25;2.00;;;;;19.02;52.17;100788.69;5082832;27;45218;-64
2023/08/26 08:38:39;;;;;;;;;1.00;1.00;;;;;19.05;52.25;100795.66;5081018;28;47932;-64
2023/08/26 08:41:04;;;;;;;;;2.00;1.25;;;;;19.06;52.08;100781.41;5082247;28;45286;-64
2023/08/26 08:43:30;;;;;;;;;3.00;2.00;;;;;19.11;52.01;100792.69;5082525;28;45231;-64
2023/08/26 08:45:56;;;;;;;;;0.50;0.50;;;;;19.14;51.94;100793.41;5082476;27;45429;-64
2023/08/26 08:48:23;;;;;;;;;2.25;2.00;;;;;19.17;52.07;100787.06;5082126;28;45272;-64
2023/08/26 08:50:49;;;;;;;;;2.00;1.00;;;;;19.20;52.31;100775.41;5082396;28;45344;-64
2023/08/26 08:53:22;;;;;;;;;1.50;1.50;;;;;19.19;52.40;100785.16;5082295;28;45367;-64
2023/08/26 08:55:49;;;;;;;;;1.25;1.00;;;;;19.20;51.99;100784.25;5082057;27;45390;-64
2023/08/26 08:58:16;;;;;;;;;1.00;1.00;;;;;19.23;52.01;100791.22;5082187;28;45337;-64
2023/08/26 09:00:42;;;;;;;;;1.00;1.00;;;;;19.27;51.92;100796.31;5082219;28;45299;-64
2023/08/26 09:03:08;;;;;;;;;2.00;0.75;;;;;19.30;52.12;100795.31;5082159;28;45440;-64
2023/08/26 09:05:34;;;;;;;;;1.50;1.00;;;;;19.30;52.45;100788.16;5081551;27;45555;-64
2023/08/26 09:08:02;;;;;;;;;1.50;1.00;;;;;19.33;52.09;100788.03;5081976;28;45229;-64
2023/08/26 09:10:28;;;;;;;;;1.00;1.00;;;;;19.36;51.58;100784.34;5081776;28;45390;-64
2023/08/26 09:12:54;;;;;;;;;1.25;1.00;;;;;19.42;51.71;100786.69;5082160;28;45331;-64
2023/08/26 09:15:19;;;;;;;;;0.50;0.25;;;;;19.46;51.81;100774.09;5081816;28;45299;-64
2023/08/26 09:17:46;;;;;;;;;0.00;0.00;;;;;19.48;52.45;100781.06;5082196;28;45368;-64
2023/08/26 09:20:11;;;;;;;;;2.75;1.75;;;;;19.53;51.81;100790.63;5081777;28;45287;-64
2023/08/26 09:22:36;;;;;;;;;1.00;1.00;;;;;19.54;52.04;100781.69;5082046;28;45302;-64
2023/08/26 09:25:04;;;;;;;;;0.50;0.50;;;;;19.59;51.98;100787.63;5079537;27;49003;-64
2023/08/26 09:27:34;;;;;;;;;2.00;0.75;;;;;19.62;51.55;100792.78;5081805;28;46361;-64
2023/08/26 09:30:00;;;;;;;;;0.75;0.75;;;;;19.67;51.82;100792.56;5080351;28;45714;-64
2023/08/26 09:32:41;;;;;;;;;1.00;1.00;;;;;19.69;52.13;100822.69;5081899;28;45461;-64
2023/08/26 09:35:14;;;;;;;;;1.00;1.00;;;;;19.70;52.13;100806.59;5081220;27;45200;-64
2023/08/26 09:37:41;;;;;;;;;2.00;1.00;;;;;19.70;52.24;100801.28;5080300;28;46027;-64
2023/08/26 09:40:11;;;;;;;;;1.75;1.75;;;;;19.70;51.70;100795.94;5081102;27;45213;-64
2023/08/26 09:42:37;;;;;;;;;1.75;1.75;;;;;19.71;51.69;100787.00;5081575;28;45249;-65
2023/08/26 09:45:10;;;;;;;;;1.00;1.00;;;;;19.75;52.00;100795.72;5081446;28;45231;-66
2023/08/26 09:47:39;;;;;;;;;1.00;1.00;;;;;19.79;51.73;100803.44;5081362;28;46120;-64
2023/08/26 09:50:07;;;;;;;;;1.00;1.00;;;;;19.81;51.38;100792.75;5081310;28;45410;-64
2023/08/26 09:52:45;;;;;;;;;1.25;1.25;;;;;19.85;51.86;100788.09;5081458;28;45210;-66
2023/08/26 09:55:11;;;;;;;;;1.00;1.00;;;;;19.87;51.29;100786.22;5081082;28;45368;-64
2023/08/26 09:57:36;;;;;;;;;2.00;2.00;;;;;19.90;51.45;100797.59;5081092;28;45995;-65
2023/08/26 10:00:02;;;;;;;;;1.00;1.00;;;;;19.92;51.28;100794.84;5081523;28;45276;-64
2023/08/26 10:02:32;;;;;;;;;6.75;4.00;;;;;19.93;51.41;100785.91;5046274;28;45312;-64
2023/08/26 10:05:04;;;;;;;;;1.00;1.00;;;;;19.95;51.19;100784.88;5079836;28;45521;-64
2023/08/26 10:07:31;;;;;;;;;1.00;1.00;;;;;19.97;51.60;100784.81;5080885;28;46146;-64
2023/08/26 10:10:07;;;;;;;;;1.00;1.00;;;;;20.02;51.08;100785.41;5080853;28;46356;-64
2023/08/26 10:12:40;;;;;;;;;1.00;1.00;;;;;20.08;51.74;100774.41;5079757;28;45410;-64
2023/08/26 10:15:09;;;;;;;;;1.00;1.00;;;;;20.17;51.59;100770.41;5080658;27;45433;-66
2023/08/26 10:17:38;;;;;;;;;1.00;1.00;;;;;20.26;51.75;100761.03;5079933;28;45446;-64
2023/08/26 10:20:06;;;;;;;;;1.00;1.00;;;;;20.44;51.44;100768.03;5080920;28;45402;-64
2023/08/26 10:22:31;;;;;;;;;1.50;1.50;;;;;20.60;51.83;100770.72;5080818;28;45247;-64
2023/08/26 10:24:57;;;;;;;;;2.00;2.00;;;;;20.85;51.36;100774.69;5080265;28;45190;-64
2023/08/26 10:27:23;;;;;;;;;3.50;1.00;;;;;21.08;50.98;100772.50;5080647;28;45307;-64
2023/08/26 10:29:49;;;;;;;;;2.50;1.75;;;;;21.35;51.14;100769.19;5080820;28;45358;-64
2023/08/26 10:32:22;;;;;;;;;1.00;1.00;;;;;21.63;50.75;100767.56;5080684;28;45440;-65
2023/08/26 10:34:58;;;;;;;;;1.00;1.00;;;;;21.92;50.82;100764.00;5080695;27;45214;-64
2023/08/26 10:37:31;;;;;;;;;2.00;1.00;;;;;22.21;50.83;100769.34;5080703;28;46330;-64
2023/08/26 10:40:04;;;;;;;;;2.50;1.00;;;;;22.48;50.19;100773.09;5080213;28;45428;-65
2023/08/26 10:42:30;;;;;;;;;1.00;1.00;;;;;22.76;50.02;100773.97;5080663;28;45227;-64
2023/08/26 10:44:56;;;;;;;;;9.75;7.75;;;;;23.01;49.70;100767.88;5080374;28;45277;-64
2023/08/26 10:47:35;;;;;;;;;0.50;0.50;;;;;23.28;48.96;100775.94;5080557;27;46108;-64
2023/08/26 10:50:19;;;;;;;;;0.00;0.00;;;;;23.53;48.36;100766.19;5080568;27;45444;-64
2023/08/26 10:52:49;;;;;;;;;2.00;2.00;;;;;23.75;48.19;100762.03;5080394;28;45424;-64
2023/08/26 10:55:28;;;;;;;;;2.75;2.75;;;;;24.04;48.27;100765.41;5080208;27;45308;-64
2023/08/26 10:58:16;;;;;;;;;2.00;2.00;;;;;24.33;47.75;100763.31;5080013;28;45374;-64
2023/08/26 11:00:52;;;;;;;;;1.00;1.00;;;;;24.60;47.35;100753.34;5080285;28;45469;-61
2023/08/26 11:03:19;;;;;;;;;1.00;1.00;;;;;24.88;47.38;100748.66;5080320;28;45341;-64
2023/08/26 11:05:59;;;;;;;;;1.75;1.75;;;;;25.18;47.12;100741.94;5080066;28;45594;-64
2023/08/26 11:08:24;;;;;;;;;0.75;0.75;;;;;25.46;46.63;100746.97;5080224;28;45472;-64
2023/08/26 11:10:51;;;;;;;;;1.00;0.50;;;;;25.74;45.97;100736.75;5079560;28;45375;-64
2023/08/26 11:13:16;;;;;;;;;0.25;0.25;;;;;26.03;45.61;100752.41;5079141;28;45384;-64
2023/08/26 11:15:43;;;;;;;;;0.50;0.50;;;;;26.28;45.36;100734.34;5079918;27;45315;-64
2023/08/26 11:18:10;;;;;;;;;0.75;0.75;;;;;26.59;44.69;100738.09;5080116;28;45236;-64
2023/08/26 11:20:36;;;;;;;;;1.00;1.00;;;;;26.87;44.67;100729.59;5079794;28;45290;-64